Etusivu
METAR-TAF:

METAR-TAF

Lentoasemat :

Sanya Phoenixin kansainvälinen lentoasema

Sanya, Kiina

Leveyspiiri: 18-18N, Pituuspiiri: 109-24E, korkeus merenpinnasta: 27 m

Tämänhetkinen sää

Tämä raportti tehtiin 46 minuuttia sitten, kello 01.00 UTC
Tuuli 4 kn etelästä/kaakosta, vaihdellen idän ja etelän/lounaan välillä
Lämpötila 30°C
Kosteus 75%
Ilmanpaine 1011 hPa
Näkyvyys 10 km tai enemmän
Hajonneita pilviä 2000 ft:n korkeudessa

METAR: ZJSY 170100Z 15002MPS 090V200 9999 BKN020 30/25 Q1011 NOSIG

Aika: 09:46 (01:46 UTC)

Sääennuste

Tämä raportti tehtiin 4 tuntia ja 43 minuuttia sitten, kello 21.03 UTC
Ennuste voimassa 17. päivästä klo 00 UTC - 17. päivään klo 24 UTC
Tuuli 8 kn etelästä/kaakosta
Näkyvyys 10 km tai enemmän
Hajanaisia pilviä 2000 ft:n korkeudessa

TAF: ZJSY 162103Z 1700/1724 15004MPS 9999 SCT020 TX33/1706Z TN26/1721Z

Säähavainnot ja -ennusteet yli 4000 lentoasemalta (METAR- ja TAF-raportit).

Käytössä olevat sääasemat on merkitty karttaan keltaisilla ja punaisilla pisteillä.

Aseta hiiri pisteen päälle nähdäksesi sääaseman nimen.

Klikkaa sitten nähdäksesi säähavainnot ja -ennusteet.

Kartan vaihtaminen: klikkaa mustalla rastilla varustettuja vihreitä pisteitä, niin voit zoomata sisään; viivalla varustettua vihreää pistettä, niin voit zoomata ulos tai vihreitä nuolia, niin pääset viereisille kartoille.


METAR-TAF: